Time;durP1;ratioP1;P1;durP2;ratioP2;P2;SDS_P1;SDS_P2;PMS_P1;PMS_P2;Temp;Humidity;BMP_temperature;BMP_pressure;BME280_temperature;BME280_humidity;BME280_pressure;Samples;Min_cycle;Max_cycle;Signal;HPM_P1;HPM_P2
2022/12/05 00:00:36;;;;;;;87.22;33.67;;;;;;;;;;5044260;28;20069;-96
2022/12/05 00:03:05;;;;;;;96.80;33.38;;;;;;;;;;5035256;28;20034;-95
2022/12/05 00:05:39;;;;;;;82.15;31.13;;;;;;;;;;5057135;28;20053;-94
2022/12/05 00:08:07;;;;;;;84.80;31.95;;;;;;;;;;5057901;28;20025;-95
2022/12/05 00:10:38;;;;;;;74.68;30.92;;;;;;;;;;5044425;28;20045;-95
2022/12/05 00:13:05;;;;;;;100.00;32.22;;;;;;;;;;5039430;28;20053;-96
2022/12/05 00:15:40;;;;;;;96.22;31.40;;;;;;;;;;5036346;28;20128;-96
2022/12/05 00:18:07;;;;;;;87.30;31.08;;;;;;;;;;5035508;28;20119;-95
2022/12/05 00:20:35;;;;;;;79.00;29.38;;;;;;;;;;5036571;28;20140;-96
2022/12/05 00:23:02;;;;;;;86.15;31.15;;;;;;;;;;5034862;28;20071;-96
2022/12/05 00:25:35;;;;;;;95.63;31.48;;;;;;;;;;5038385;28;20050;-96
2022/12/05 00:28:04;;;;;;;77.78;29.17;;;;;;;;;;5037177;28;20542;-96
2022/12/05 00:30:31;;;;;;;82.78;29.98;;;;;;;;;;5035285;28;20513;-95
2022/12/05 00:32:59;;;;;;;106.30;32.30;;;;;;;;;;5034218;28;20053;-96
2022/12/05 00:35:26;;;;;;;86.47;31.42;;;;;;;;;;5034125;28;20073;-96
2022/12/05 00:37:54;;;;;;;79.88;30.05;;;;;;;;;;5034396;28;20103;-96
2022/12/05 00:40:21;;;;;;;72.78;28.77;;;;;;;;;;5033137;28;20451;-95
2022/12/05 00:42:48;;;;;;;78.18;29.88;;;;;;;;;;5034511;28;20077;-96
2022/12/05 00:45:18;;;;;;;76.57;30.23;;;;;;;;;;5033569;28;20084;-96
2022/12/05 00:47:46;;;;;;;103.20;33.55;;;;;;;;;;5036578;28;20060;-96
2022/12/05 00:50:16;;;;;;;79.28;29.60;;;;;;;;;;5044161;28;20113;-95
2022/12/05 00:52:47;;;;;;;72.32;29.17;;;;;;;;;;5042603;28;20042;-96
2022/12/05 00:55:19;;;;;;;88.45;29.42;;;;;;;;;;5043926;28;20049;-96
2022/12/05 00:57:47;;;;;;;74.90;28.08;;;;;;;;;;5038582;28;20398;-96
2022/12/05 01:00:15;;;;;;;78.88;29.02;;;;;;;;;;5038679;28;20498;-96
2022/12/05 01:02:42;;;;;;;76.88;28.83;;;;;;;;;;5041892;28;20095;-96
2022/12/05 01:05:10;;;;;;;67.57;26.63;;;;;;;;;;5049933;28;20049;-96
2022/12/05 01:07:41;;;;;;;70.25;27.50;;;;;;;;;;5050769;28;20473;-96
2022/12/05 01:10:34;;;;;;;75.25;28.70;;;;;;;;;;5057793;28;20029;-96
2022/12/05 01:13:21;;;;;;;73.97;28.42;;;;;;;;;;5059073;28;20057;-96
2022/12/05 01:16:29;;;;;;;77.35;29.58;;;;;;;;;;4991715;28;20050;-96
2022/12/05 01:19:08;;;;;;;79.47;27.88;;;;;;;;;;5019597;28;20101;-95
2022/12/05 01:21:53;;;;;;;63.45;24.50;;;;;;;;;;4999303;28;20119;-96
2022/12/05 01:24:23;;;;;;;66.57;25.92;;;;;;;;;;4994382;28;20050;-96
2022/12/05 01:27:05;;;;;;;65.85;26.90;;;;;;;;;;4998921;28;20046;-96
2022/12/05 01:29:40;;;;;;;67.97;26.10;;;;;;;;;;5013954;28;20050;-96
2022/12/05 01:32:31;;;;;;;74.85;27.42;;;;;;;;;;5032154;22;20022;-81
2022/12/05 01:34:58;;;;;;;70.85;27.65;;;;;;;;;;5018721;28;20085;-79
2022/12/05 01:37:25;;;;;;;79.35;28.20;;;;;;;;;;5018596;28;20053;-80
2022/12/05 01:39:53;;;;;;;80.93;27.70;;;;;;;;;;5036207;28;20419;-81
2022/12/05 01:42:20;;;;;;;67.32;26.27;;;;;;;;;;5035941;28;20081;-82
2022/12/05 01:45:03;;;;;;;67.07;27.40;;;;;;;;;;5035766;28;20479;-81
2022/12/05 01:47:32;;;;;;;74.70;26.27;;;;;;;;;;5018100;28;20548;-82
2022/12/05 01:49:59;;;;;;;73.07;26.58;;;;;;;;;;5017588;28;20492;-79
2022/12/05 01:52:28;;;;;;;64.68;25.63;;;;;;;;;;5035104;28;20054;-77
2022/12/05 01:54:58;;;;;;;82.40;27.52;;;;;;;;;;5035237;28;20428;-78
2022/12/05 01:57:25;;;;;;;72.43;26.42;;;;;;;;;;5035096;28;20128;-79
2022/12/05 01:59:55;;;;;;;119.18;32.17;;;;;;;;;;5035361;28;20409;-79
2022/12/05 02:02:23;;;;;;;86.22;29.35;;;;;;;;;;5034522;28;20103;-79
2022/12/05 02:05:10;;;;;;;73.57;27.10;;;;;;;;;;5034647;28;20508;-79
2022/12/05 02:07:39;;;;;;;75.25;28.00;;;;;;;;;;5034544;28;20045;-78
2022/12/05 02:10:06;;;;;;;93.18;29.98;;;;;;;;;;5016906;28;20412;-79
2022/12/05 02:12:34;;;;;;;89.68;29.48;;;;;;;;;;5016592;28;20050;-78
2022/12/05 02:15:09;;;;;;;70.40;26.25;;;;;;;;;;5034456;28;20136;-78
2022/12/05 02:17:40;;;;;;;73.93;26.60;;;;;;;;;;5034325;28;20619;-79
2022/12/05 02:20:12;;;;;;;77.13;27.45;;;;;;;;;;5016806;28;20050;-78
2022/12/05 02:22:58;;;;;;;66.43;26.00;;;;;;;;;;5034364;28;20049;-78
2022/12/05 02:25:35;;;;;;;77.43;28.05;;;;;;;;;;5016283;28;20056;-79
2022/12/05 02:28:22;;;;;;;71.50;26.25;;;;;;;;;;5034059;28;20054;-80
2022/12/05 02:31:04;;;;;;;82.18;29.60;;;;;;;;;;5034363;28;20124;-76
2022/12/05 02:33:35;;;;;;;95.22;29.15;;;;;;;;;;5034546;28;20065;-80
2022/12/05 02:36:06;;;;;;;77.38;28.42;;;;;;;;;;5037612;28;20056;-80
2022/12/05 02:38:41;;;;;;;82.90;28.50;;;;;;;;;;5018822;28;20060;-80
2022/12/05 02:41:29;;;;;;;74.70;27.48;;;;;;;;;;5020447;28;20053;-81
2022/12/05 02:43:59;;;;;;;65.68;26.27;;;;;;;;;;5018557;28;20056;-80
2022/12/05 02:46:28;;;;;;;96.72;31.05;;;;;;;;;;5019129;28;20096;-80
2022/12/05 02:48:58;;;;;;;68.80;27.83;;;;;;;;;;5017904;28;20046;-80
2022/12/05 02:51:27;;;;;;;59.10;26.30;;;;;;;;;;5018079;28;20427;-80
2022/12/05 02:53:56;;;;;;;62.00;27.33;;;;;;;;;;5017985;28;20081;-78
2022/12/05 02:56:24;;;;;;;94.40;30.17;;;;;;;;;;5017771;28;20581;-80
2022/12/05 02:58:53;;;;;;;94.70;29.83;;;;;;;;;;5016933;28;20063;-79
2022/12/05 03:01:22;;;;;;;71.30;27.77;;;;;;;;;;5034547;28;20096;-79
2022/12/05 03:03:50;;;;;;;87.93;29.77;;;;;;;;;;5034194;28;20049;-79
2022/12/05 03:06:21;;;;;;;105.93;31.08;;;;;;;;;;5017115;28;20050;-79
2022/12/05 03:08:51;;;;;;;75.15;28.17;;;;;;;;;;5034762;28;20132;-78
2022/12/05 03:11:18;;;;;;;64.40;26.10;;;;;;;;;;5034363;28;20128;-78
2022/12/05 03:13:49;;;;;;;111.55;32.08;;;;;;;;;;5034372;28;20124;-78
2022/12/05 03:16:19;;;;;;;131.68;32.72;;;;;;;;;;5016248;28;20055;-79
2022/12/05 03:18:49;;;;;;;98.10;30.85;;;;;;;;;;5034347;28;20100;-78
2022/12/05 03:21:36;;;;;;;86.35;28.63;;;;;;;;;;5016759;28;20049;-79
2022/12/05 03:24:11;;;;;;;70.25;26.77;;;;;;;;;;5033642;28;20076;-78
2022/12/05 03:26:44;;;;;;;80.60;28.13;;;;;;;;;;5016059;28;20510;-79
2022/12/05 03:29:12;;;;;;;;;;;;;;;;;;5016804;28;20522;-79
2022/12/05 03:31:55;;;;;;;65.63;25.77;;;;;;;;;;5033609;28;20375;-79
2022/12/05 03:34:48;;;;;;;58.33;25.45;;;;;;;;;;5033164;28;20104;-78
2022/12/05 03:37:36;;;;;;;85.70;29.48;;;;;;;;;;4986870;28;20049;-79
2022/12/05 03:40:20;;;;;;;72.78;27.58;;;;;;;;;;5033639;28;20049;-78
2022/12/05 03:43:01;;;;;;;67.57;26.60;;;;;;;;;;5016115;28;20056;-78
2022/12/05 03:45:33;;;;;;;68.00;27.63;;;;;;;;;;5033668;28;20129;-79
2022/12/05 03:48:05;;;;;;;86.03;29.50;;;;;;;;;;5016128;28;20049;-79
2022/12/05 03:50:34;;;;;;;77.30;28.13;;;;;;;;;;5015829;28;20045;-79
2022/12/05 03:53:04;;;;;;;68.78;26.60;;;;;;;;;;5033481;28;20051;-79
2022/12/05 03:55:50;;;;;;;79.00;27.42;;;;;;;;;;5018023;28;20133;-79
2022/12/05 03:58:21;;;;;;;73.32;27.48;;;;;;;;;;5033267;28;20423;-79
2022/12/05 04:00:50;;;;;;;78.05;26.95;;;;;;;;;;5033162;28;20053;-78
2022/12/05 04:03:20;;;;;;;70.88;28.30;;;;;;;;;;5032995;28;20132;-79
2022/12/05 04:05:50;;;;;;;86.78;26.92;;;;;;;;;;5015993;28;20049;-80
2022/12/05 04:08:20;;;;;;;55.00;24.13;;;;;;;;;;5034810;28;20405;-80
2022/12/05 04:10:49;;;;;;;62.50;25.38;;;;;;;;;;5036037;28;20056;-80
2022/12/05 04:13:26;;;;;;;50.35;23.70;;;;;;;;;;5017516;28;20056;-80
2022/12/05 04:18:50;;;;;;;53.40;23.45;;;;;;;;;;5034721;28;20225;-80
2022/12/05 04:21:37;;;;;;;54.22;24.10;;;;;;;;;;5037264;28;20057;-80
2022/12/05 04:27:03;;;;;;;71.32;26.02;;;;;;;;;;5033439;28;20049;-88
2022/12/05 04:29:32;;;;;;;51.30;22.17;;;;;;;;;;5033377;28;20050;-88
2022/12/05 04:32:03;;;;;;;52.25;23.13;;;;;;;;;;5032510;28;20053;-88
2022/12/05 04:34:30;;;;;;;51.05;23.45;;;;;;;;;;5032419;28;20474;-87
2022/12/05 04:37:02;;;;;;;48.65;23.80;;;;;;;;;;5035027;28;20501;-88
2022/12/05 04:39:54;;;;;;;61.70;24.25;;;;;;;;;;5036600;28;20551;-88
2022/12/05 04:42:25;;;;;;;46.33;23.25;;;;;;;;;;5036278;28;20490;-88
2022/12/05 04:44:54;;;;;;;55.67;24.13;;;;;;;;;;5036214;28;20049;-88
2022/12/05 04:47:24;;;;;;;49.88;22.65;;;;;;;;;;5035993;28;20050;-88
2022/12/05 04:49:52;;;;;;;46.80;22.50;;;;;;;;;;5036241;28;20049;-88
2022/12/05 04:52:20;;;;;;;50.97;24.45;;;;;;;;;;5036797;28;20069;-87
2022/12/05 04:54:50;;;;;;;47.08;22.50;;;;;;;;;;5036679;28;20060;-87
2022/12/05 04:57:28;;;;;;;75.22;30.45;;;;;;;;;;5035880;28;20506;-88
2022/12/05 04:59:55;;;;;;;59.40;26.40;;;;;;;;;;5036820;28;20041;-87
2022/12/05 05:02:33;;;;;;;63.70;30.67;;;;;;;;;;5036703;28;20490;-88
2022/12/05 05:05:01;;;;;;;58.97;29.85;;;;;;;;;;5036725;28;20442;-88
2022/12/05 05:07:29;;;;;;;56.60;25.98;;;;;;;;;;5036069;28;20065;-88
2022/12/05 05:09:56;;;;;;;49.33;24.05;;;;;;;;;;5035699;28;20046;-88
2022/12/05 05:12:24;;;;;;;52.20;25.27;;;;;;;;;;5035566;28;20580;-87
2022/12/05 05:14:51;;;;;;;49.95;22.52;;;;;;;;;;5035699;28;20045;-87
2022/12/05 05:17:18;;;;;;;43.35;21.52;;;;;;;;;;5036208;28;20049;-87
2022/12/05 05:19:46;;;;;;;36.92;19.65;;;;;;;;;;5035471;28;20410;-88
2022/12/05 05:22:15;;;;;;;49.22;20.00;;;;;;;;;;5035419;28;20417;-88
2022/12/05 05:24:43;;;;;;;40.40;19.33;;;;;;;;;;5036514;28;20045;-87
2022/12/05 05:27:10;;;;;;;44.67;20.33;;;;;;;;;;5035304;28;20049;-87
2022/12/05 05:29:37;;;;;;;48.38;21.23;;;;;;;;;;5035211;28;20045;-88
2022/12/05 05:32:04;;;;;;;43.58;20.77;;;;;;;;;;5036387;28;20050;-88
2022/12/05 05:34:31;;;;;;;39.70;19.65;;;;;;;;;;5035218;28;20053;-87
2022/12/05 05:36:58;;;;;;;39.40;19.92;;;;;;;;;;5035312;28;20387;-88
2022/12/05 05:39:28;;;;;;;41.13;19.88;;;;;;;;;;5036068;28;20103;-88
2022/12/05 05:41:55;;;;;;;39.08;20.08;;;;;;;;;;5036179;28;20148;-87
2022/12/05 05:44:22;;;;;;;36.35;18.85;;;;;;;;;;5034867;28;20060;-88
2022/12/05 05:46:49;;;;;;;35.88;18.42;;;;;;;;;;5035108;28;20049;-88
2022/12/05 05:49:17;;;;;;;38.05;20.70;;;;;;;;;;5035223;28;20475;-88
2022/12/05 05:51:44;;;;;;;71.20;26.02;;;;;;;;;;5036078;28;20429;-88
2022/12/05 05:54:11;;;;;;;63.35;25.83;;;;;;;;;;5035959;28;20049;-87
2022/12/05 05:56:39;;;;;;;47.83;23.00;;;;;;;;;;5034791;28;20053;-87
2022/12/05 05:59:06;;;;;;;50.65;23.33;;;;;;;;;;5035621;28;20049;-88
2022/12/05 06:01:33;;;;;;;57.10;25.10;;;;;;;;;;5035572;28;20072;-87
2022/12/05 06:04:01;;;;;;;56.28;23.85;;;;;;;;;;5034841;28;20542;-87
2022/12/05 06:06:28;;;;;;;59.20;24.45;;;;;;;;;;5035198;28;20131;-87
2022/12/05 06:08:55;;;;;;;66.30;25.38;;;;;;;;;;5034369;28;20050;-88
2022/12/05 06:11:24;;;;;;;56.65;23.75;;;;;;;;;;5035662;28;20088;-87
2022/12/05 06:13:54;;;;;;;55.28;24.95;;;;;;;;;;5034637;28;20042;-87
2022/12/05 06:16:22;;;;;;;67.50;25.40;;;;;;;;;;5035510;28;20429;-87
2022/12/05 06:18:51;;;;;;;56.55;22.98;;;;;;;;;;5035500;28;20418;-86
2022/12/05 06:21:18;;;;;;;43.30;22.10;;;;;;;;;;5034119;28;20055;-87
2022/12/05 06:23:45;;;;;;;62.47;27.48;;;;;;;;;;5034118;28;20065;-87
2022/12/05 06:26:14;;;;;;;48.65;25.80;;;;;;;;;;5034026;28;20045;-87
2022/12/05 06:28:41;;;;;;;90.43;43.15;;;;;;;;;;5034281;28;20053;-87
2022/12/05 06:31:09;;;;;;;62.38;30.17;;;;;;;;;;5035052;28;20041;-90
2022/12/05 06:33:36;;;;;;;49.33;24.98;;;;;;;;;;5035294;28;20211;-88
2022/12/05 06:36:05;;;;;;;53.47;28.00;;;;;;;;;;5033906;28;20045;-87
2022/12/05 06:38:33;;;;;;;41.22;22.48;;;;;;;;;;5034001;28;20056;-88
2022/12/05 06:41:07;;;;;;;47.25;22.38;;;;;;;;;;5033919;28;20433;-88
2022/12/05 06:43:34;;;;;;;41.42;21.90;;;;;;;;;;5034453;28;20057;-87
2022/12/05 06:46:05;;;;;;;50.83;23.83;;;;;;;;;;5033995;28;20053;-88
2022/12/05 06:48:32;;;;;;;44.28;21.40;;;;;;;;;;5033938;28;20450;-88
2022/12/05 06:51:00;;;;;;;57.05;25.73;;;;;;;;;;5034980;28;20139;-88
2022/12/05 06:53:27;;;;;;;50.17;22.48;;;;;;;;;;5033971;28;20045;-87
2022/12/05 06:55:58;;;;;;;60.78;29.73;;;;;;;;;;5033814;28;20050;-88
2022/12/05 06:58:25;;;;;;;48.50;22.60;;;;;;;;;;5033490;28;20500;-88
2022/12/05 07:03:38;;;;;;;54.75;24.05;;;;;;;;;;5034525;28;20045;-88
2022/12/05 07:06:07;;;;;;;45.33;22.33;;;;;;;;;;5033372;28;20052;-88
2022/12/05 07:08:34;;;;;;;48.35;21.65;;;;;;;;;;5033807;28;20053;-88
2022/12/05 07:11:02;;;;;;;52.50;23.98;;;;;;;;;;5034168;28;20045;-88
2022/12/05 07:13:29;;;;;;;49.47;23.02;;;;;;;;;;5034459;28;20501;-88
2022/12/05 07:15:57;;;;;;;38.58;21.25;;;;;;;;;;5033090;28;20509;-88
2022/12/05 07:18:25;;;;;;;46.08;21.58;;;;;;;;;;5033305;28;20056;-88
2022/12/05 07:20:59;;;;;;;38.72;20.67;;;;;;;;;;5033277;28;20052;-88
2022/12/05 07:23:38;;;;;;;42.40;22.05;;;;;;;;;;5032833;28;20144;-88
2022/12/05 07:26:10;;;;;;;48.55;24.48;;;;;;;;;;5033114;28;20224;-88
2022/12/05 07:28:38;;;;;;;38.70;21.83;;;;;;;;;;5033151;28;20057;-87
2022/12/05 07:31:07;;;;;;;53.30;23.15;;;;;;;;;;5033937;28;20068;-88
2022/12/05 07:33:34;;;;;;;56.40;26.23;;;;;;;;;;5034100;28;20410;-88
2022/12/05 07:36:02;;;;;;;39.10;22.02;;;;;;;;;;5033119;28;20520;-88
2022/12/05 07:38:29;;;;;;;44.30;23.65;;;;;;;;;;5032987;28;20053;-88
2022/12/05 07:40:56;;;;;;;38.95;22.15;;;;;;;;;;5033855;28;20391;-86
2022/12/05 07:43:24;;;;;;;43.28;23.33;;;;;;;;;;5034709;28;20059;-88
2022/12/05 07:45:51;;;;;;;49.65;27.20;;;;;;;;;;5032761;28;20046;-88
2022/12/05 07:48:18;;;;;;;48.75;25.85;;;;;;;;;;5032842;28;20064;-88
2022/12/05 07:50:46;;;;;;;52.95;27.52;;;;;;;;;;5032303;28;20060;-88
2022/12/05 07:53:13;;;;;;;39.97;23.23;;;;;;;;;;5032560;28;20501;-88
2022/12/05 07:55:40;;;;;;;49.38;26.98;;;;;;;;;;5033638;28;20585;-88
2022/12/05 07:58:08;;;;;;;44.95;24.15;;;;;;;;;;5033732;28;20053;-87
2022/12/05 08:00:35;;;;;;;50.10;25.33;;;;;;;;;;5033709;28;20041;-88
2022/12/05 08:03:02;;;;;;;44.25;24.42;;;;;;;;;;5033792;28;20053;-88
2022/12/05 08:05:30;;;;;;;42.83;23.42;;;;;;;;;;5032487;28;20045;-87
2022/12/05 08:07:57;;;;;;;49.05;22.67;;;;;;;;;;5033214;28;20056;-87
2022/12/05 08:10:25;;;;;;;51.35;22.40;;;;;;;;;;5033156;28;20053;-87
2022/12/05 08:12:52;;;;;;;47.15;21.15;;;;;;;;;;5032746;28;20490;-88
2022/12/05 08:15:19;;;;;;;33.47;20.27;;;;;;;;;;5032449;28;20057;-87
2022/12/05 08:17:46;;;;;;;32.63;20.30;;;;;;;;;;5033639;28;20152;-88
2022/12/05 08:20:14;;;;;;;28.70;19.63;;;;;;;;;;5032619;28;20474;-87
2022/12/05 08:22:41;;;;;;;33.08;20.40;;;;;;;;;;5033395;28;20069;-88
2022/12/05 08:25:08;;;;;;;35.25;21.45;;;;;;;;;;5033307;28;20236;-88
2022/12/05 08:27:35;;;;;;;28.33;19.52;;;;;;;;;;5033385;28;20387;-88
2022/12/05 08:30:03;;;;;;;28.88;18.45;;;;;;;;;;5032500;28;20045;-87
2022/12/05 08:32:30;;;;;;;27.10;18.45;;;;;;;;;;5032478;28;20072;-88
2022/12/05 08:34:58;;;;;;;24.50;17.27;;;;;;;;;;5033616;28;20050;-87
2022/12/05 08:37:25;;;;;;;31.10;17.95;;;;;;;;;;5032949;28;20057;-87
2022/12/05 08:39:52;;;;;;;24.13;16.98;;;;;;;;;;5032279;28;20053;-87
2022/12/05 08:42:19;;;;;;;25.70;17.45;;;;;;;;;;5032339;28;20516;-87
2022/12/05 08:44:49;;;;;;;27.17;17.73;;;;;;;;;;5032442;28;20052;-87
2022/12/05 08:47:17;;;;;;;23.73;17.70;;;;;;;;;;5033303;28;20049;-87
2022/12/05 08:49:45;;;;;;;33.20;21.00;;;;;;;;;;5033274;28;20064;-87
2022/12/05 08:52:12;;;;;;;58.30;31.75;;;;;;;;;;5033372;28;20156;-86
2022/12/05 08:54:39;;;;;;;41.85;25.38;;;;;;;;;;5033303;28;20053;-87
2022/12/05 08:57:06;;;;;;;31.80;20.13;;;;;;;;;;5031845;28;20049;-87
2022/12/05 08:59:33;;;;;;;28.92;18.15;;;;;;;;;;5032134;28;20133;-87
2022/12/05 09:02:01;;;;;;;25.48;16.98;;;;;;;;;;5033255;28;20060;-87
2022/12/05 09:04:28;;;;;;;27.48;16.58;;;;;;;;;;5032723;28;20473;-86
2022/12/05 09:06:55;;;;;;;32.70;16.70;;;;;;;;;;5032952;28;20061;-86
2022/12/05 09:09:22;;;;;;;29.02;16.48;;;;;;;;;;5032117;28;20052;-87
2022/12/05 09:11:49;;;;;;;27.67;16.98;;;;;;;;;;5033320;28;20049;-87
2022/12/05 09:14:17;;;;;;;26.80;17.10;;;;;;;;;;5032985;28;20050;-87
2022/12/05 09:16:46;;;;;;;30.98;18.65;;;;;;;;;;5032870;28;20042;-87
2022/12/05 09:19:14;;;;;;;28.45;18.33;;;;;;;;;;5031594;28;20050;-86
2022/12/05 09:21:42;;;;;;;27.90;18.48;;;;;;;;;;5032655;28;20045;-86
2022/12/05 09:24:10;;;;;;;23.92;15.45;;;;;;;;;;5034294;28;20516;-87
2022/12/05 09:26:38;;;;;;;22.75;16.48;;;;;;;;;;5036416;28;20050;-87
2022/12/05 09:29:06;;;;;;;19.65;13.82;;;;;;;;;;5035056;28;20095;-86
2022/12/05 09:31:41;;;;;;;17.13;13.48;;;;;;;;;;5035308;28;20069;-87
2022/12/05 09:34:09;;;;;;;27.92;13.15;;;;;;;;;;5035421;28;20049;-87
2022/12/05 09:36:36;;;;;;;19.83;12.40;;;;;;;;;;5035444;28;20049;-86
2022/12/05 09:39:05;;;;;;;18.08;11.73;;;;;;;;;;5034905;28;20049;-86
2022/12/05 09:42:09;;;;;;;18.00;12.85;;;;;;;;;;5035094;28;20136;-86
2022/12/05 09:44:40;;;;;;;15.80;11.05;;;;;;;;;;5035312;28;20048;-86
2022/12/05 09:47:17;;;;;;;15.50;11.68;;;;;;;;;;5034671;28;20049;-86
2022/12/05 09:49:50;;;;;;;16.25;11.68;;;;;;;;;;5036027;28;20080;-86
2022/12/05 09:52:23;;;;;;;15.70;11.23;;;;;;;;;;5035967;28;20045;-86
2022/12/05 09:54:52;;;;;;;16.75;12.23;;;;;;;;;;5035729;28;20057;-86
2022/12/05 09:57:24;;;;;;;14.23;11.07;;;;;;;;;;5034712;28;20132;-86
2022/12/05 10:00:00;;;;;;;17.67;11.23;;;;;;;;;;5035571;28;20453;-86
2022/12/05 10:02:48;;;;;;;15.80;11.50;;;;;;;;;;5035409;28;20041;-86
2022/12/05 10:05:31;;;;;;;15.55;11.65;;;;;;;;;;5014697;28;20478;-86
2022/12/05 10:08:04;;;;;;;15.07;11.25;;;;;;;;;;5035394;28;20049;-86
2022/12/05 10:10:46;;;;;;;19.10;12.02;;;;;;;;;;5035723;28;20128;-86
2022/12/05 10:13:32;;;;;;;17.50;11.70;;;;;;;;;;5034099;28;20063;-86
2022/12/05 10:16:02;;;;;;;14.65;11.55;;;;;;;;;;5034370;28;20055;-86
2022/12/05 10:18:41;;;;;;;16.67;11.68;;;;;;;;;;5034324;28;20087;-85
2022/12/05 10:21:08;;;;;;;39.10;12.15;;;;;;;;;;5034901;28;20399;-86
2022/12/05 10:23:45;;;;;;;17.10;11.10;;;;;;;;;;5031923;28;20512;-86
2022/12/05 10:26:26;;;;;;;15.75;10.20;;;;;;;;;;5033060;28;20140;-86
2022/12/05 10:28:57;;;;;;;12.50;9.90;;;;;;;;;;5034057;28;20045;-86
2022/12/05 10:31:30;;;;;;;13.65;10.82;;;;;;;;;;5034831;28;20050;-87
2022/12/05 10:34:10;;;;;;;14.43;9.52;;;;;;;;;;5034933;28;20054;-86
2022/12/05 10:36:37;;;;;;;12.23;8.90;;;;;;;;;;5034460;28;20128;-87
2022/12/05 10:39:05;;;;;;;12.65;9.65;;;;;;;;;;5033915;28;20052;-86
2022/12/05 10:41:37;;;;;;;15.07;10.98;;;;;;;;;;5034166;28;20056;-87
2022/12/05 10:44:04;;;;;;;15.90;11.27;;;;;;;;;;5034702;28;20058;-86
2022/12/05 10:46:32;;;;;;;15.60;12.05;;;;;;;;;;5033786;28;20057;-87
2022/12/05 10:48:59;;;;;;;12.55;9.98;;;;;;;;;;5034723;28;20095;-86
2022/12/05 10:51:28;;;;;;;14.63;10.13;;;;;;;;;;5035018;28;20128;-86
2022/12/05 10:54:13;;;;;;;14.18;11.02;;;;;;;;;;5033476;28;20060;-86
2022/12/05 10:56:40;;;;;;;18.60;11.10;;;;;;;;;;5033401;28;20058;-86
2022/12/05 10:59:09;;;;;;;13.60;10.05;;;;;;;;;;5033234;28;20052;-86
2022/12/05 11:01:37;;;;;;;15.30;10.18;;;;;;;;;;5033342;28;20057;-86
2022/12/05 11:04:10;;;;;;;14.77;9.13;;;;;;;;;;5033611;28;20072;-85
2022/12/05 11:06:48;;;;;;;12.88;9.43;;;;;;;;;;5033538;28;20053;-86
2022/12/05 11:09:17;;;;;;;14.43;8.77;;;;;;;;;;5033177;28;20053;-85
2022/12/05 11:11:57;;;;;;;14.50;9.75;;;;;;;;;;5033354;28;20132;-86
2022/12/05 11:14:26;;;;;;;16.63;10.35;;;;;;;;;;5033233;28;20076;-85
2022/12/05 11:16:54;;;;;;;20.40;12.80;;;;;;;;;;5033932;28;20045;-85
2022/12/05 11:19:22;;;;;;;16.10;11.55;;;;;;;;;;5033162;28;20041;-86
2022/12/05 11:21:49;;;;;;;18.50;11.68;;;;;;;;;;5032791;28;20057;-85
2022/12/05 11:24:30;;;;;;;19.30;12.52;;;;;;;;;;5032770;28;20049;-85
2022/12/05 11:26:59;;;;;;;14.45;10.60;;;;;;;;;;5032954;28;20053;-86
2022/12/05 11:29:29;;;;;;;20.42;11.80;;;;;;;;;;5033882;28;20466;-85
2022/12/05 11:31:57;;;;;;;17.50;11.35;;;;;;;;;;5032873;28;20081;-86
2022/12/05 11:34:27;;;;;;;16.38;10.85;;;;;;;;;;5033783;28;20490;-86
2022/12/05 11:37:01;;;;;;;17.10;11.15;;;;;;;;;;5032905;28;20053;-86
2022/12/05 11:39:28;;;;;;;16.83;10.68;;;;;;;;;;5032769;28;20056;-86
2022/12/05 11:41:58;;;;;;;23.13;13.18;;;;;;;;;;5033684;28;20056;-86
2022/12/05 11:44:43;;;;;;;19.80;12.30;;;;;;;;;;5033225;28;20058;-86
2022/12/05 11:47:29;;;;;;;21.33;11.63;;;;;;;;;;5032878;28;20061;-87
2022/12/05 11:50:08;;;;;;;22.55;11.77;;;;;;;;;;5033943;28;20038;-86
2022/12/05 11:52:48;;;;;;;17.98;12.55;;;;;;;;;;5033727;28;20049;-85
2022/12/05 11:55:21;;;;;;;18.38;12.23;;;;;;;;;;5032354;28;20482;-86
2022/12/05 11:57:54;;;;;;;21.38;12.23;;;;;;;;;;5033191;28;20046;-86
2022/12/05 12:00:24;;;;;;;15.60;10.77;;;;;;;;;;5031932;28;20064;-86
2022/12/05 12:02:54;;;;;;;15.93;10.68;;;;;;;;;;5032344;28;20048;-86
2022/12/05 12:05:41;;;;;;;13.23;9.18;;;;;;;;;;5033662;28;20052;-86
2022/12/05 12:08:17;;;;;;;14.48;9.98;;;;;;;;;;5032234;28;20060;-87
2022/12/05 12:10:53;;;;;;;12.77;9.20;;;;;;;;;;5033302;28;20048;-88
2022/12/05 12:13:43;;;;;;;12.07;9.18;;;;;;;;;;5032680;28;20107;-88
2022/12/05 12:16:15;;;;;;;13.32;8.45;;;;;;;;;;5032891;28;20051;-87
2022/12/05 12:18:42;;;;;;;14.32;9.40;;;;;;;;;;5033515;28;20493;-88
2022/12/05 12:21:22;;;;;;;17.40;12.57;;;;;;;;;;5033804;28;20489;-88
2022/12/05 12:23:59;;;;;;;13.88;10.15;;;;;;;;;;5033455;28;20062;-88
2022/12/05 12:26:38;;;;;;;14.60;9.13;;;;;;;;;;5033366;28;20061;-88
2022/12/05 12:29:20;;;;;;;16.25;9.43;;;;;;;;;;5041695;28;20049;-89
2022/12/05 12:31:57;;;;;;;10.82;7.85;;;;;;;;;;5032896;28;20145;-88
2022/12/05 12:34:34;;;;;;;15.80;10.23;;;;;;;;;;5032581;28;20104;-87
2022/12/05 12:37:01;;;;;;;11.02;8.00;;;;;;;;;;5032434;28;20061;-88
2022/12/05 12:39:49;;;;;;;22.75;14.48;;;;;;;;;;5032511;28;20478;-88
2022/12/05 12:42:19;;;;;;;14.65;9.20;;;;;;;;;;5025375;28;20054;-88
2022/12/05 12:44:52;;;;;;;12.88;8.50;;;;;;;;;;5033662;28;20053;-89
2022/12/05 12:47:19;;;;;;;8.00;6.50;;;;;;;;;;5033193;28;20500;-89
2022/12/05 12:49:53;;;;;;;9.80;7.22;;;;;;;;;;5033534;28;20053;-88
2022/12/05 12:52:24;;;;;;;8.75;6.88;;;;;;;;;;5032078;28;20045;-88
2022/12/05 12:55:06;;;;;;;12.15;9.52;;;;;;;;;;5032251;28;20064;-88
2022/12/05 12:57:45;;;;;;;12.73;9.85;;;;;;;;;;5033168;28;20062;-89
2022/12/05 13:00:31;;;;;;;11.45;8.85;;;;;;;;;;5036910;28;20045;-89
2022/12/05 13:03:08;;;;;;;12.32;8.50;;;;;;;;;;5037220;28;20053;-90
2022/12/05 13:05:35;;;;;;;13.77;9.13;;;;;;;;;;5036189;28;20072;-90
2022/12/05 13:08:02;;;;;;;11.70;7.93;;;;;;;;;;5038091;28;20054;-90
2022/12/05 13:10:33;;;;;;;8.95;7.75;;;;;;;;;;5039733;28;20049;-91
2022/12/05 13:13:05;;;;;;;7.57;6.20;;;;;;;;;;5039483;28;20046;-90
2022/12/05 13:15:36;;;;;;;9.90;7.28;;;;;;;;;;5037625;28;20057;-90
2022/12/05 13:18:04;;;;;;;10.45;7.90;;;;;;;;;;5037364;28;20053;-90
2022/12/05 13:20:33;;;;;;;9.68;7.18;;;;;;;;;;5037839;28;20574;-91
2022/12/05 13:23:02;;;;;;;14.63;9.25;;;;;;;;;;5037549;28;20058;-92
2022/12/05 13:25:34;;;;;;;;;;;;;;;;;;5038965;28;20057;-91
2022/12/05 13:28:03;;;;;;;8.73;6.63;;;;;;;;;;5037714;28;20413;-91
2022/12/05 13:30:32;;;;;;;9.38;6.50;;;;;;;;;;5037895;28;20045;-92
2022/12/05 13:33:03;;;;;;;7.55;5.53;;;;;;;;;;5036560;28;20052;-91
2022/12/05 13:43:59;;;;;;;4.40;3.45;;;;;;;;;;5037429;28;20505;-92
2022/12/05 13:46:34;;;;;;;5.60;3.22;;;;;;;;;;5036807;28;20060;-92
2022/12/05 13:49:04;;;;;;;4.28;3.88;;;;;;;;;;5039157;28;20049;-91
2022/12/05 13:51:36;;;;;;;4.32;3.92;;;;;;;;;;5039573;28;20120;-92
2022/12/05 13:54:06;;;;;;;4.68;3.67;;;;;;;;;;5035693;28;20053;-92
2022/12/05 13:56:48;;;;;;;4.28;3.85;;;;;;;;;;5037846;28;20136;-91
2022/12/05 13:59:35;;;;;;;4.63;4.22;;;;;;;;;;5035564;28;20544;-92
2022/12/05 14:02:22;;;;;;;4.43;4.03;;;;;;;;;;5037435;28;20550;-91
2022/12/05 14:04:50;;;;;;;5.07;3.92;;;;;;;;;;5035025;28;20071;-91
2022/12/05 14:07:36;;;;;;;4.60;4.20;;;;;;;;;;5034219;28;20068;-89
2022/12/05 14:10:04;;;;;;;5.03;4.00;;;;;;;;;;5034814;28;20072;-92
2022/12/05 14:12:45;;;;;;;7.95;4.82;;;;;;;;;;5034048;28;20042;-90
2022/12/05 14:15:25;;;;;;;5.60;4.43;;;;;;;;;;5034079;28;20069;-91
2022/12/05 14:18:16;;;;;;;5.20;4.70;;;;;;;;;;5035134;28;20045;-91
2022/12/05 14:21:04;;;;;;;5.20;4.65;;;;;;;;;;5029523;28;20072;-93
2022/12/05 14:23:44;;;;;;;7.30;5.90;;;;;;;;;;5034079;28;20144;-92
2022/12/05 14:26:19;;;;;;;7.10;5.97;;;;;;;;;;5034102;28;20204;-93
2022/12/05 14:28:52;;;;;;;8.93;6.32;;;;;;;;;;5034712;28;20200;-92
2022/12/05 14:31:26;;;;;;;6.72;5.30;;;;;;;;;;5033482;28;20046;-92
2022/12/05 14:34:14;;;;;;;7.82;5.78;;;;;;;;;;5034669;28;20051;-92
2022/12/05 14:36:55;;;;;;;6.65;5.10;;;;;;;;;;5034919;28;20457;-93
2022/12/05 14:39:30;;;;;;;7.05;5.15;;;;;;;;;;5033813;28;20057;-94
2022/12/05 14:41:58;;;;;;;8.55;6.07;;;;;;;;;;5034514;28;20100;-93
2022/12/05 14:44:30;;;;;;;9.60;5.60;;;;;;;;;;5033522;28;20053;-93
2022/12/05 14:47:04;;;;;;;6.85;5.57;;;;;;;;;;5033652;28;20543;-93
2022/12/05 14:49:50;;;;;;;9.27;5.65;;;;;;;;;;5033866;28;20418;-92
2022/12/05 14:52:21;;;;;;;9.13;6.63;;;;;;;;;;5033299;28;20111;-93
2022/12/05 14:54:50;;;;;;;9.68;6.40;;;;;;;;;;5033033;28;20063;-93
2022/12/05 14:57:19;;;;;;;10.68;7.35;;;;;;;;;;5033168;28;20050;-92
2022/12/05 14:59:51;;;;;;;8.32;7.05;;;;;;;;;;5033383;28;20064;-92
2022/12/05 15:02:21;;;;;;;9.20;7.90;;;;;;;;;;5033168;28;20494;-92
2022/12/05 15:04:55;;;;;;;10.93;7.22;;;;;;;;;;5033144;28;20507;-93